createdAt,value
2018-03-18T00:00:48.355Z,-1.86
2018-03-18T00:01:48.069Z,-1.77
2018-03-18T00:02:48.288Z,-1.86
2018-03-18T00:03:48.247Z,-1.89
2018-03-18T00:04:48.219Z,-1.87
2018-03-18T00:05:48.180Z,-1.89
2018-03-18T00:06:48.147Z,-1.86
2018-03-18T00:07:48.111Z,-1.84
2018-03-18T00:08:48.074Z,-1.95
2018-03-18T00:09:48.042Z,-1.87
2018-03-18T00:10:48.010Z,-1.92
2018-03-18T00:11:47.727Z,-1.92
2018-03-18T00:12:47.936Z,-1.89
2018-03-18T00:13:47.912Z,-1.89
2018-03-18T00:14:47.867Z,-1.86
2018-03-18T00:15:47.836Z,-1.87
2018-03-18T00:16:47.579Z,-1.83
2018-03-18T00:17:47.769Z,-1.89
2018-03-18T00:18:47.734Z,-1.89
2018-03-18T00:19:47.696Z,-1.86
2018-03-18T00:20:47.668Z,-1.87
2018-03-18T00:21:47.629Z,-1.89
2018-03-18T00:22:47.611Z,-1.9
2018-03-18T00:23:47.558Z,-1.84
2018-03-18T00:24:47.527Z,-1.87
2018-03-18T00:25:47.490Z,-1.9
2018-03-18T00:26:47.453Z,-1.84
2018-03-18T00:27:47.170Z,-1.83
2018-03-18T00:28:47.390Z,-1.87
2018-03-18T00:29:47.359Z,-1.92
2018-03-18T00:30:47.321Z,-1.84
2018-03-18T00:31:47.280Z,-1.86
2018-03-18T00:32:47.254Z,-1.86
2018-03-18T00:33:47.216Z,-1.89
2018-03-18T00:34:47.184Z,-1.9
2018-03-18T00:35:47.146Z,-1.97
2018-03-18T00:36:47.106Z,-1.86
2018-03-18T00:37:47.069Z,-1.87
2018-03-18T00:38:47.042Z,-1.87
2018-03-18T00:39:47.004Z,-1.86
2018-03-18T00:40:46.975Z,-1.9
2018-03-18T00:41:46.935Z,-1.92
2018-03-18T00:42:46.902Z,-1.87
2018-03-18T00:43:46.862Z,-1.92
2018-03-18T00:44:46.844Z,-2
2018-03-18T00:45:46.796Z,-1.95
2018-03-18T00:46:46.763Z,-1.87
2018-03-18T00:47:46.478Z,-1.89
2018-03-18T00:48:46.700Z,-1.86
2018-03-18T00:49:46.659Z,-1.92
2018-03-18T00:50:46.658Z,-1.92
2018-03-18T00:51:46.605Z,-1.83
2018-03-18T00:52:46.554Z,-1.84
2018-03-18T00:53:46.520Z,-1.86
2018-03-18T00:54:46.488Z,-1.92
2018-03-18T00:55:46.452Z,-1.83
2018-03-18T00:56:46.166Z,-1.94
2018-03-18T00:57:46.378Z,-1.98
2018-03-18T00:58:46.098Z,-1.9
2018-03-18T00:59:46.312Z,-1.9
2018-03-18T01:00:46.278Z,-1.86
2018-03-18T01:01:46.249Z,-1.87
2018-03-18T01:02:45.957Z,-1.84
2018-03-18T01:03:45.926Z,-1.9
2018-03-18T01:04:46.165Z,-1.94
2018-03-18T01:05:46.111Z,-1.84
2018-03-18T01:06:46.070Z,-1.95
2018-03-18T01:07:46.037Z,-1.94
2018-03-18T01:08:45.998Z,-1.92
2018-03-18T01:09:45.972Z,-1.95
2018-03-18T01:10:45.939Z,-1.89
2018-03-18T01:11:45.890Z,-1.92
2018-03-18T01:12:45.909Z,-1.89
2018-03-18T01:13:45.580Z,-1.86
2018-03-18T01:14:45.789Z,-1.89
2018-03-18T01:15:45.757Z,-1.89
2018-03-18T01:16:45.722Z,-1.87
2018-03-18T01:17:45.443Z,-1.89
2018-03-18T01:18:45.403Z,-1.97
2018-03-18T01:19:45.620Z,-1.89
2018-03-18T01:20:45.627Z,-1.86
2018-03-18T01:21:45.550Z,-1.89
2018-03-18T01:22:45.266Z,-1.84
2018-03-18T01:23:45.478Z,-1.95
2018-03-18T01:24:45.450Z,-1.95
2018-03-18T01:25:45.409Z,-1.92
2018-03-18T01:26:45.127Z,-1.95
2018-03-18T01:27:45.341Z,-1.98
2018-03-18T01:28:45.309Z,-1.95
2018-03-18T01:29:45.273Z,-1.98
2018-03-18T01:30:45.237Z,-1.98
2018-03-18T01:31:45.203Z,-1.98
2018-03-18T01:32:44.919Z,-1.98
2018-03-18T01:33:45.135Z,-1.92
2018-03-18T01:34:45.097Z,-2.02
2018-03-18T01:35:45.062Z,-2.01
2018-03-18T01:36:45.026Z,-2.01
2018-03-18T01:37:44.990Z,-2.04
2018-03-18T01:38:44.959Z,-2
2018-03-18T01:39:44.939Z,-2.05
2018-03-18T01:40:44.894Z,-2.16
2018-03-18T01:41:44.852Z,-2.1
2018-03-18T01:42:44.822Z,-2.05
2018-03-18T01:43:44.806Z,-2.05
2018-03-18T01:44:44.748Z,-2.04
2018-03-18T01:45:44.714Z,-2.12
2018-03-18T01:46:44.677Z,-2.05
2018-03-18T01:47:44.653Z,-2.12
2018-03-18T01:48:44.613Z,-2.04
2018-03-18T01:49:44.327Z,-2.13
2018-03-18T01:50:44.543Z,-2.1
2018-03-18T01:51:44.506Z,-2.1
2018-03-18T01:52:44.474Z,-2.02
2018-03-18T01:53:44.441Z,-2.15
2018-03-18T01:54:44.414Z,-2.16
2018-03-18T01:55:44.364Z,-2.08
2018-03-18T01:56:44.331Z,-2.08
2018-03-18T01:57:44.046Z,-2.16
2018-03-18T01:58:44.014Z,-2.19
2018-03-18T01:59:44.227Z,-2.12
2018-03-18T02:00:44.197Z,-2.15
2018-03-18T02:01:44.173Z,-2.13
2018-03-18T02:02:44.119Z,-2.22
2018-03-18T02:03:43.838Z,-2.18
2018-03-18T02:04:44.058Z,-2.21
2018-03-18T02:05:44.031Z,-2.19
2018-03-18T02:06:43.986Z,-2.19
2018-03-18T02:07:43.950Z,-2.23
2018-03-18T02:08:43.919Z,-2.21
2018-03-18T02:09:43.880Z,-2.23
2018-03-18T02:10:43.843Z,-2.25
2018-03-18T02:11:43.805Z,-2.19
2018-03-18T02:12:43.525Z,-2.25
2018-03-18T02:13:44.049Z,-2.21
2018-03-18T02:14:43.821Z,-2.25
2018-03-18T02:15:43.668Z,-2.21
2018-03-18T02:16:43.633Z,-2.23
2018-03-18T02:17:43.605Z,-2.28
2018-03-18T02:18:43.564Z,-2.23
2018-03-18T02:19:43.526Z,-2.23
2018-03-18T02:20:43.500Z,-2.16
2018-03-18T02:21:43.459Z,-2.19
2018-03-18T02:22:43.422Z,-2.21
2018-03-18T02:23:43.391Z,-2.25
2018-03-18T02:24:43.354Z,-2.26
2018-03-18T02:25:43.317Z,-2.25
2018-03-18T02:26:43.291Z,-2.22
2018-03-18T02:27:43.251Z,-2.3
2018-03-18T02:28:43.221Z,-2.23
2018-03-18T02:29:43.180Z,-2.23
2018-03-18T02:30:43.144Z,-2.28
2018-03-18T02:31:43.115Z,-2.25
2018-03-18T02:32:43.082Z,-2.21
2018-03-18T02:33:43.046Z,-2.23
2018-03-18T02:34:43.010Z,-2.22
2018-03-18T02:35:42.966Z,-2.25
2018-03-18T02:36:42.942Z,-2.19
2018-03-18T02:37:42.907Z,-2.25
2018-03-18T02:38:42.866Z,-2.25
2018-03-18T02:39:42.580Z,-2.23
2018-03-18T02:40:42.796Z,-2.26
2018-03-18T02:41:42.512Z,-2.25
2018-03-18T02:42:42.735Z,-2.3
2018-03-18T02:43:42.688Z,-2.26
2018-03-18T02:44:42.656Z,-2.23
2018-03-18T02:45:42.621Z,-2.34
2018-03-18T02:46:42.596Z,-2.32
2018-03-18T02:47:42.552Z,-2.25
2018-03-18T02:48:42.277Z,-2.25
2018-03-18T02:49:42.484Z,-2.3
2018-03-18T02:50:42.448Z,-2.23
2018-03-18T02:51:42.407Z,-2.26
2018-03-18T02:52:42.377Z,-2.22
2018-03-18T02:53:42.337Z,-2.23
2018-03-18T02:54:42.413Z,-2.25
2018-03-18T02:55:42.274Z,-2.26
2018-03-18T02:56:42.231Z,-2.22
2018-03-18T02:57:42.201Z,-2.26
2018-03-18T02:58:42.161Z,-2.32
2018-03-18T02:59:42.127Z,-2.32
2018-03-18T03:00:42.114Z,-2.23
2018-03-18T03:01:42.075Z,-2.28
2018-03-18T03:02:42.024Z,-2.26
2018-03-18T03:03:41.991Z,-2.3
2018-03-18T03:04:41.452Z,-2.3
2018-03-18T03:05:41.919Z,-2.32
2018-03-18T03:06:41.884Z,-2.28
2018-03-18T03:07:41.855Z,-2.26
2018-03-18T03:08:41.564Z,-2.28
2018-03-18T03:09:41.774Z,-2.3
2018-03-18T03:10:41.746Z,-2.23
2018-03-18T03:11:41.709Z,-2.32
2018-03-18T03:12:41.669Z,-2.32
2018-03-18T03:13:41.386Z,-2.32
2018-03-18T03:14:41.599Z,-2.3
2018-03-18T03:15:41.322Z,-2.26
2018-03-18T03:16:41.533Z,-2.3
2018-03-18T03:17:41.492Z,-2.25
2018-03-18T03:18:41.463Z,-2.23
2018-03-18T03:19:41.425Z,-2.23
2018-03-18T03:20:41.393Z,-2.21
2018-03-18T03:21:41.360Z,-2.22
2018-03-18T03:22:41.076Z,-2.25
2018-03-18T03:23:41.042Z,-2.19
2018-03-18T03:24:41.258Z,-2.21
2018-03-18T03:25:41.213Z,-2.15
2018-03-18T03:26:41.182Z,-2.25
2018-03-18T03:27:41.143Z,-2.12
2018-03-18T03:28:40.864Z,-2.12
2018-03-18T03:29:40.825Z,-2.15
2018-03-18T03:30:41.051Z,-2.15
2018-03-18T03:31:41.016Z,-2.13
2018-03-18T03:32:40.985Z,-2.16
2018-03-18T03:33:40.942Z,-2.12
2018-03-18T03:34:40.900Z,-2.15
2018-03-18T03:35:40.871Z,-2.13
2018-03-18T03:36:40.835Z,-2.13
2018-03-18T03:37:40.798Z,-2.16
2018-03-18T03:38:40.515Z,-2.15
2018-03-18T03:39:40.735Z,-2.18
2018-03-18T03:40:40.694Z,-2.18
2018-03-18T03:41:40.410Z,-2.21
2018-03-18T03:42:40.373Z,-2.22
2018-03-18T03:43:40.340Z,-2.26
2018-03-18T03:44:40.552Z,-2.32
2018-03-18T03:45:40.516Z,-2.28
2018-03-18T03:46:40.482Z,-2.3
2018-03-18T03:47:40.453Z,-2.28
2018-03-18T03:48:40.164Z,-2.3
2018-03-18T03:49:40.380Z,-2.34
2018-03-18T03:50:40.349Z,-2.28
2018-03-18T03:51:40.315Z,-2.34
2018-03-18T03:52:40.275Z,-2.37
2018-03-18T03:53:40.242Z,-2.35
2018-03-18T03:54:40.205Z,-2.34
2018-03-18T03:55:40.166Z,-2.32
2018-03-18T03:56:40.134Z,-2.32
2018-03-18T03:57:40.104Z,-2.35
2018-03-18T03:58:40.066Z,-2.42
2018-03-18T03:59:40.031Z,-2.35
2018-03-18T04:00:39.996Z,-2.3
2018-03-18T04:01:39.971Z,-2.3
2018-03-18T04:02:39.920Z,-2.4
2018-03-18T04:03:39.947Z,-2.42
2018-03-18T04:04:39.855Z,-2.42
2018-03-18T04:05:39.815Z,-2.38
2018-03-18T04:06:39.782Z,-2.42
2018-03-18T04:07:39.752Z,-2.45
2018-03-18T04:08:39.471Z,-2.41
2018-03-18T04:09:39.680Z,-2.44
2018-03-18T04:10:39.645Z,-2.42
2018-03-18T04:11:39.375Z,-2.42
2018-03-18T04:12:39.580Z,-2.47
2018-03-18T04:13:39.544Z,-2.53
2018-03-18T04:14:39.256Z,-2.47
2018-03-18T04:15:39.220Z,-2.52
2018-03-18T04:16:39.446Z,-2.55
2018-03-18T04:17:39.404Z,-2.55
2018-03-18T04:18:39.366Z,-2.53
2018-03-18T04:19:39.333Z,-2.47
2018-03-18T04:20:39.298Z,-2.45
2018-03-18T04:21:39.260Z,-2.42
2018-03-18T04:22:38.976Z,-2.5
2018-03-18T04:23:39.194Z,-2.56
2018-03-18T04:24:39.156Z,-2.59
2018-03-18T04:25:39.118Z,-2.53
2018-03-18T04:26:39.084Z,-2.58
2018-03-18T04:27:39.048Z,-2.52
2018-03-18T04:28:39.015Z,-2.53
2018-03-18T04:29:38.986Z,-2.58
2018-03-18T04:30:38.940Z,-2.58
2018-03-18T04:31:38.908Z,-2.73
2018-03-18T04:32:38.875Z,-2.69
2018-03-18T04:33:38.841Z,-2.71
2018-03-18T04:34:38.805Z,-2.58
2018-03-18T04:35:38.521Z,-2.58
2018-03-18T04:36:38.739Z,-2.6
2018-03-18T04:37:38.698Z,-2.58
2018-03-18T04:38:38.417Z,-2.66
2018-03-18T04:39:38.625Z,-2.58
2018-03-18T04:40:38.598Z,-2.58
2018-03-18T04:41:38.559Z,-2.63
2018-03-18T04:42:38.523Z,-2.66
2018-03-18T04:43:38.497Z,-2.58
2018-03-18T04:44:38.453Z,-2.59
2018-03-18T04:45:38.424Z,-2.66
2018-03-18T04:46:38.389Z,-2.6
2018-03-18T04:47:38.346Z,-2.63
2018-03-18T04:48:38.313Z,-2.63
2018-03-18T04:49:38.280Z,-2.66
2018-03-18T04:50:38.241Z,-2.71
2018-03-18T04:51:37.960Z,-2.59
2018-03-18T04:52:38.178Z,-2.6
2018-03-18T04:53:38.139Z,-2.56
2018-03-18T04:54:38.101Z,-2.63
2018-03-18T04:55:38.078Z,-2.65
2018-03-18T04:56:38.030Z,-2.62
2018-03-18T04:57:37.749Z,-2.63
2018-03-18T04:58:37.957Z,-2.71
2018-03-18T04:59:37.926Z,-2.65
2018-03-18T05:00:37.894Z,-2.65
2018-03-18T05:01:37.864Z,-2.63
2018-03-18T05:02:37.826Z,-2.66
2018-03-18T05:03:37.782Z,-2.66
2018-03-18T05:04:37.758Z,-2.71
2018-03-18T05:05:37.721Z,-2.73
2018-03-18T05:06:37.682Z,-2.71
2018-03-18T05:07:37.648Z,-2.74
2018-03-18T05:08:37.618Z,-2.66
2018-03-18T05:09:37.328Z,-2.59
2018-03-18T05:10:37.544Z,-2.74
2018-03-18T05:11:37.510Z,-2.69
2018-03-18T05:12:37.473Z,-2.66
2018-03-18T05:13:37.434Z,-2.73
2018-03-18T05:14:37.399Z,-2.7
2018-03-18T05:15:37.112Z,-2.7
2018-03-18T05:16:37.400Z,-2.78
2018-03-18T05:17:37.294Z,-2.78
2018-03-18T05:18:37.257Z,-2.77
2018-03-18T05:19:37.220Z,-2.81
2018-03-18T05:20:37.198Z,-2.77
2018-03-18T05:21:37.238Z,-2.74
2018-03-18T05:22:37.115Z,-2.81
2018-03-18T05:23:37.186Z,-2.78
2018-03-18T05:24:36.798Z,-2.76
2018-03-18T05:25:37.012Z,-2.7
2018-03-18T05:26:36.977Z,-2.74
2018-03-18T05:27:36.949Z,-2.8
2018-03-18T05:28:36.904Z,-2.77
2018-03-18T05:29:36.875Z,-2.76
2018-03-18T05:30:36.837Z,-2.71
2018-03-18T05:31:36.799Z,-2.77
2018-03-18T05:32:36.768Z,-2.77
2018-03-18T05:33:36.728Z,-2.74
2018-03-18T05:34:36.450Z,-2.76
2018-03-18T05:35:36.665Z,-2.78
2018-03-18T05:36:36.377Z,-2.77
2018-03-18T05:37:36.339Z,-2.77
2018-03-18T05:38:36.302Z,-2.73
2018-03-18T05:39:36.514Z,-2.74
2018-03-18T05:40:36.477Z,-2.76
2018-03-18T05:41:36.197Z,-2.77
2018-03-18T05:42:36.162Z,-2.76
2018-03-18T05:43:36.400Z,-2.8
2018-03-18T05:44:36.336Z,-2.8
2018-03-18T05:45:36.304Z,-2.76
2018-03-18T05:46:36.269Z,-2.8
2018-03-18T05:47:36.232Z,-2.76
2018-03-18T05:48:35.955Z,-2.69
2018-03-18T05:49:35.916Z,-2.73
2018-03-18T05:50:36.127Z,-2.73
2018-03-18T05:51:36.101Z,-2.78
2018-03-18T05:52:35.810Z,-2.77
2018-03-18T05:53:36.028Z,-2.78
2018-03-18T05:54:35.986Z,-2.66
2018-03-18T05:55:35.950Z,-2.76
2018-03-18T05:56:35.911Z,-2.74
2018-03-18T05:57:35.882Z,-2.77
2018-03-18T05:58:35.847Z,-2.76
2018-03-18T05:59:35.827Z,-2.76
2018-03-18T06:00:35.533Z,-2.78
2018-03-18T06:01:35.741Z,-2.81
2018-03-18T06:02:35.709Z,-2.86
2018-03-18T06:03:35.672Z,-2.8
2018-03-18T06:04:35.640Z,-2.84
2018-03-18T06:05:35.601Z,-2.89
2018-03-18T06:06:35.323Z,-2.84
2018-03-18T06:07:35.530Z,-2.83
2018-03-18T06:08:35.248Z,-2.83
2018-03-18T06:09:35.461Z,-2.8
2018-03-18T06:10:35.435Z,-2.81
2018-03-18T06:11:35.385Z,-2.77
2018-03-18T06:12:35.496Z,-2.81
2018-03-18T06:13:35.321Z,-2.83
2018-03-18T06:14:35.288Z,-2.86
2018-03-18T06:15:35.247Z,-2.83
2018-03-18T06:16:35.215Z,-2.77
2018-03-18T06:17:35.184Z,-2.81
2018-03-18T06:18:35.141Z,-2.78
2018-03-18T06:19:35.114Z,-2.83
2018-03-18T06:20:34.826Z,-2.89
2018-03-18T06:21:35.036Z,-2.88
2018-03-18T06:22:35.004Z,-2.86
2018-03-18T06:23:34.968Z,-2.88
2018-03-18T06:24:34.935Z,-2.8
2018-03-18T06:25:34.894Z,-2.83
2018-03-18T06:26:34.860Z,-2.88
2018-03-18T06:27:34.831Z,-2.78
2018-03-18T06:28:34.792Z,-2.74
2018-03-18T06:29:34.758Z,-2.8
2018-03-18T06:30:34.722Z,-2.77
2018-03-18T06:31:34.712Z,-2.8
2018-03-18T06:32:34.657Z,-2.7
2018-03-18T06:33:34.623Z,-2.66
2018-03-18T06:34:34.589Z,-2.73
2018-03-18T06:35:34.569Z,-2.71
2018-03-18T06:36:34.513Z,-2.7
2018-03-18T06:37:34.580Z,-2.7
2018-03-18T06:38:34.493Z,-2.74
2018-03-18T06:39:34.410Z,-2.69
2018-03-18T06:40:34.376Z,-2.69
2018-03-18T06:41:34.100Z,-2.69
2018-03-18T06:42:34.057Z,-2.66
2018-03-18T06:43:34.019Z,-2.7
2018-03-18T06:44:34.234Z,-2.66
2018-03-18T06:45:33.952Z,-2.7
2018-03-18T06:46:33.916Z,-2.65
2018-03-18T06:47:34.137Z,-2.69
2018-03-18T06:48:34.100Z,-2.71
2018-03-18T06:49:34.061Z,-2.7
2018-03-18T06:50:34.026Z,-2.74
2018-03-18T06:51:33.995Z,-2.76
2018-03-18T06:52:33.956Z,-2.8
2018-03-18T06:53:33.926Z,-2.74
2018-03-18T06:54:33.888Z,-2.76
2018-03-18T06:55:33.853Z,-2.7
2018-03-18T06:56:34.020Z,-2.63
2018-03-18T06:57:33.788Z,-2.63
2018-03-18T06:58:33.749Z,-2.62
2018-03-18T06:59:33.750Z,-2.62
2018-03-18T07:00:33.677Z,-2.59
2018-03-18T07:01:33.653Z,-2.74
2018-03-18T07:02:33.615Z,-2.74
2018-03-18T07:03:33.578Z,-2.62
2018-03-18T07:04:33.295Z,-2.6
2018-03-18T07:05:33.502Z,-2.77
2018-03-18T07:06:33.225Z,-2.63
2018-03-18T07:07:33.448Z,-2.6
2018-03-18T07:08:33.399Z,-2.66
2018-03-18T07:09:33.373Z,-2.58
2018-03-18T07:10:33.332Z,-2.69
2018-03-18T07:11:33.300Z,-2.59
2018-03-18T07:12:33.258Z,-2.52
2018-03-18T07:13:33.235Z,-2.52
2018-03-18T07:14:32.946Z,-2.52
2018-03-18T07:15:32.665Z,-2.53
2018-03-18T07:16:32.873Z,-2.59
2018-03-18T07:17:33.095Z,-2.56
2018-03-18T07:18:33.065Z,-2.6
2018-03-18T07:19:33.022Z,-2.62
2018-03-18T07:20:32.990Z,-2.55
2018-03-18T07:21:32.704Z,-2.48
2018-03-18T07:22:32.670Z,-2.53
2018-03-18T07:23:32.644Z,-2.6
2018-03-18T07:24:32.847Z,-2.58
2018-03-18T07:25:32.960Z,-2.53
2018-03-18T07:26:32.788Z,-2.52
2018-03-18T07:27:32.747Z,-2.53
2018-03-18T07:28:32.718Z,-2.53
2018-03-18T07:29:32.682Z,-2.53
2018-03-18T07:30:32.646Z,-2.44
2018-03-18T07:31:32.616Z,-2.5
2018-03-18T07:32:32.577Z,-2.47
2018-03-18T07:33:32.545Z,-2.48
2018-03-18T07:34:32.511Z,-2.42
2018-03-18T07:35:32.474Z,-2.44
2018-03-18T07:36:32.322Z,-2.45
2018-03-18T07:37:32.406Z,-2.4
2018-03-18T07:38:32.140Z,-2.42
2018-03-18T07:39:32.342Z,-2.34
2018-03-18T07:40:32.307Z,-2.4
2018-03-18T07:41:32.023Z,-2.25
2018-03-18T07:42:32.248Z,-2.28
2018-03-18T07:43:32.208Z,-2.26
2018-03-18T07:44:32.171Z,-2.3
2018-03-18T07:45:32.137Z,-2.37
2018-03-18T07:46:32.100Z,-2.42
2018-03-18T07:47:31.819Z,-2.37
2018-03-18T07:48:32.035Z,-2.32
2018-03-18T07:49:32.006Z,-2.4
2018-03-18T07:50:32.078Z,-2.3
2018-03-18T07:51:31.935Z,-2.28
2018-03-18T07:52:31.905Z,-2.35
2018-03-18T07:53:31.869Z,-2.38
2018-03-18T07:54:31.596Z,-2.32
2018-03-18T07:55:31.802Z,-2.23
2018-03-18T07:56:31.768Z,-2.21
2018-03-18T07:57:31.490Z,-2.18
2018-03-18T07:58:31.705Z,-2.07
2018-03-18T07:59:31.424Z,-2.12
2018-03-18T08:00:31.637Z,-1.95
2018-03-18T08:01:31.356Z,-1.98
2018-03-18T08:02:31.574Z,-1.9
2018-03-18T08:03:31.543Z,-1.95
2018-03-18T08:04:31.502Z,-1.95
2018-03-18T08:05:31.494Z,-1.97
2018-03-18T08:06:31.437Z,-2.04
2018-03-18T08:07:31.568Z,-2
2018-03-18T08:08:31.375Z,-2.01
2018-03-18T08:09:31.092Z,-2
2018-03-18T08:10:31.408Z,-2.04
2018-03-18T08:11:31.300Z,-2.07
2018-03-18T08:12:30.993Z,-2.07
2018-03-18T08:13:31.620Z,-1.98
2018-03-18T08:14:31.226Z,-1.92
2018-03-18T08:15:31.151Z,-1.92
2018-03-18T08:16:31.111Z,-1.83
2018-03-18T08:17:30.829Z,-1.74
2018-03-18T08:18:31.050Z,-1.76
2018-03-18T08:19:31.018Z,-1.68
2018-03-18T08:20:30.975Z,-1.71
2018-03-18T08:21:30.949Z,-1.69
2018-03-18T08:22:30.914Z,-1.71
2018-03-18T08:23:30.632Z,-1.68
2018-03-18T08:24:30.600Z,-1.69
2018-03-18T08:25:30.813Z,-1.77
2018-03-18T08:26:30.790Z,-1.77
2018-03-18T08:27:30.748Z,-1.79
2018-03-18T08:28:30.718Z,-1.71
2018-03-18T08:29:30.700Z,-1.74
2018-03-18T08:30:30.657Z,-1.74
2018-03-18T08:31:30.373Z,-1.72
2018-03-18T08:32:30.591Z,-1.65
2018-03-18T08:33:30.568Z,-1.65
2018-03-18T08:34:30.276Z,-1.71
2018-03-18T08:35:30.247Z,-1.68
2018-03-18T08:36:30.458Z,-1.66
2018-03-18T08:37:30.427Z,-1.58
2018-03-18T08:38:30.398Z,-1.61
2018-03-18T08:39:30.121Z,-1.46
2018-03-18T08:40:30.333Z,-1.5
2018-03-18T08:41:30.398Z,-1.33
2018-03-18T08:42:30.270Z,-1.38
2018-03-18T08:43:29.989Z,-1.46
2018-03-18T08:44:29.957Z,-1.43
2018-03-18T08:45:30.177Z,-1.47
2018-03-18T08:46:29.899Z,-1.48
2018-03-18T08:47:30.115Z,-1.46
2018-03-18T08:48:30.079Z,-1.44
2018-03-18T08:49:30.053Z,-1.46
2018-03-18T08:50:30.011Z,-1.5
2018-03-18T08:51:29.982Z,-1.48
2018-03-18T08:52:29.963Z,-1.48
2018-03-18T08:53:29.923Z,-1.46
2018-03-18T08:54:29.887Z,-1.44
2018-03-18T08:55:29.856Z,-1.33
2018-03-18T08:56:29.820Z,-1.26
2018-03-18T08:57:29.795Z,-1.3
2018-03-18T08:58:29.758Z,-1.25
2018-03-18T08:59:29.480Z,-1.25
2018-03-18T09:00:29.694Z,-1.17
2018-03-18T09:01:29.665Z,-1.12
2018-03-18T09:02:29.630Z,-1.26
2018-03-18T09:03:29.620Z,-1.12
2018-03-18T09:04:29.573Z,-1.25
2018-03-18T09:05:29.544Z,-1.12
2018-03-18T09:06:29.504Z,-1.08
2018-03-18T09:07:29.479Z,-1.01
2018-03-18T09:08:29.195Z,-1.02
2018-03-18T09:09:29.408Z,-0.93
2018-03-18T09:10:29.385Z,-1.04
2018-03-18T09:11:29.351Z,-1.09
2018-03-18T09:12:29.315Z,-1.09
2018-03-18T09:13:29.287Z,-1.05
2018-03-18T09:14:29.014Z,-1.04
2018-03-18T09:15:29.308Z,-0.97
2018-03-18T09:16:28.942Z,-0.93
2018-03-18T09:17:29.166Z,-0.99
2018-03-18T09:18:29.128Z,-0.85
2018-03-18T09:19:28.857Z,-0.83
2018-03-18T09:20:29.072Z,-0.74
2018-03-18T09:21:28.791Z,-0.68
2018-03-18T09:22:29.011Z,-0.61
2018-03-18T09:23:29.014Z,-0.53
2018-03-18T09:24:28.695Z,-0.47
2018-03-18T09:25:28.933Z,-0.44
2018-03-18T09:26:28.885Z,-0.44
2018-03-18T09:27:28.854Z,-0.5
2018-03-18T09:28:28.859Z,-0.52
2018-03-18T09:29:28.799Z,-0.65
2018-03-18T09:30:28.762Z,-0.72
2018-03-18T09:31:28.733Z,-0.74
2018-03-18T09:32:28.460Z,-0.74
2018-03-18T09:33:28.675Z,-0.61
2018-03-18T09:34:28.394Z,-0.74
2018-03-18T09:35:28.612Z,-0.85
2018-03-18T09:36:28.580Z,-0.85
2018-03-18T09:37:28.550Z,-0.83
2018-03-18T09:38:28.541Z,-0.93
2018-03-18T09:39:28.495Z,-1.05
2018-03-18T09:40:28.216Z,-1.05
2018-03-18T09:41:28.179Z,-1.08
2018-03-18T09:42:28.395Z,-1.14
2018-03-18T09:43:28.362Z,-1.2
2018-03-18T09:44:28.336Z,-1.19
2018-03-18T09:45:28.358Z,-1.26
2018-03-18T09:46:28.271Z,-1.3
2018-03-18T09:47:28.243Z,-1.38
2018-03-18T09:48:28.220Z,-1.35
2018-03-18T09:49:27.924Z,-1.37
2018-03-18T09:50:28.176Z,-1.4
2018-03-18T09:51:28.198Z,-1.33
2018-03-18T09:52:27.834Z,-1.37
2018-03-18T09:53:27.853Z,-1.35
2018-03-18T09:54:27.793Z,-1.4
2018-03-18T09:55:28.045Z,-1.25
2018-03-18T09:56:28.301Z,-1.3
2018-03-18T09:57:27.457Z,-1.12
2018-03-18T09:58:27.955Z,-1.09
2018-03-18T09:59:27.922Z,-1.14
2018-03-18T10:00:27.838Z,-1.11
2018-03-18T10:01:27.788Z,-1.15
2018-03-18T10:02:27.770Z,-1.25
2018-03-18T10:03:27.731Z,-1.07
2018-03-18T10:04:27.200Z,-1.11
2018-03-18T10:05:27.419Z,-1.08
2018-03-18T10:06:27.384Z,-1.05
2018-03-18T10:07:27.605Z,-1.04
2018-03-18T10:08:27.570Z,-0.96
2018-03-18T10:09:27.536Z,-0.86
2018-03-18T10:10:27.256Z,-0.85
2018-03-18T10:11:27.232Z,-0.8
2018-03-18T10:12:27.198Z,-0.82
2018-03-18T10:13:27.416Z,-0.82
2018-03-18T10:14:27.381Z,-0.77
2018-03-18T10:15:27.355Z,-0.71
2018-03-18T10:16:27.322Z,-0.74
2018-03-18T10:17:27.286Z,-0.72
2018-03-18T10:18:27.273Z,-0.77
2018-03-18T10:19:26.982Z,-0.67
2018-03-18T10:20:27.445Z,-0.65
2018-03-18T10:21:29.901Z,-0.61
2018-03-18T10:22:27.132Z,-0.46
2018-03-18T10:23:27.105Z,-0.38
2018-03-18T10:24:27.070Z,-0.29
2018-03-18T10:25:27.037Z,-0.36
2018-03-18T10:26:27.008Z,-0.34
2018-03-18T10:27:26.725Z,-0.34
2018-03-18T10:28:27.185Z,-0.38
2018-03-18T10:29:27.105Z,-0.41
2018-03-18T10:30:26.888Z,-0.36
2018-03-18T10:31:26.854Z,-0.31
2018-03-18T10:32:26.824Z,-0.38
2018-03-18T10:33:26.798Z,-0.25
2018-03-18T10:34:26.511Z,-0.32
2018-03-18T10:35:26.736Z,-0.34
2018-03-18T10:36:26.714Z,-0.38
2018-03-18T10:37:26.928Z,-0.39
2018-03-18T10:38:26.636Z,-0.49
2018-03-18T10:39:26.609Z,-0.47
2018-03-18T10:40:26.622Z,-0.54
2018-03-18T10:41:26.550Z,-0.5
2018-03-18T10:42:26.312Z,-0.64
2018-03-18T10:43:26.487Z,-0.52
2018-03-18T10:44:26.466Z,-0.64
2018-03-18T10:45:26.176Z,-0.52
2018-03-18T10:46:26.395Z,-0.41
2018-03-18T10:47:26.361Z,-0.26
2018-03-18T10:48:26.329Z,-0.21
2018-03-18T10:49:26.306Z,-0.38
2018-03-18T10:50:26.273Z,-0.35
2018-03-18T10:51:25.991Z,-0.38
2018-03-18T10:52:26.214Z,-0.39
2018-03-18T10:53:26.197Z,-0.36
2018-03-18T10:54:27.231Z,-0.36
2018-03-18T10:55:26.130Z,-0.36
2018-03-18T10:56:26.093Z,-0.31
2018-03-18T10:57:26.064Z,-0.39
2018-03-18T10:58:25.534Z,-0.28
2018-03-18T10:59:26.052Z,-0.2
2018-03-18T11:00:25.971Z,-0.21
2018-03-18T11:01:25.938Z,-0.15
2018-03-18T11:02:25.917Z,-0.25
2018-03-18T11:03:25.879Z,-0.07
2018-03-18T11:04:25.854Z,-0.1
2018-03-18T11:05:25.817Z,-0.11
2018-03-18T11:06:25.786Z,-0.06
2018-03-18T11:07:25.260Z,0
2018-03-18T11:08:25.733Z,0.04
2018-03-18T11:09:25.463Z,0.03
2018-03-18T11:10:25.677Z,0.15
2018-03-18T11:11:25.638Z,0.19
2018-03-18T11:12:25.626Z,0.29
2018-03-18T11:13:25.592Z,0.37
2018-03-18T11:14:25.304Z,0.43
2018-03-18T11:15:25.275Z,0.5
2018-03-18T11:16:25.539Z,0.4
2018-03-18T11:17:25.449Z,0.29
2018-03-18T11:18:25.431Z,0.31
2018-03-18T11:19:25.145Z,0.29
2018-03-18T11:20:25.364Z,0.39
2018-03-18T11:21:25.331Z,0.49
2018-03-18T11:22:25.304Z,0.46
2018-03-18T11:23:25.275Z,0.52
2018-03-18T11:24:25.266Z,0.47
2018-03-18T11:25:25.220Z,0.5
2018-03-18T11:26:25.188Z,0.56
2018-03-18T11:27:24.912Z,0.52
2018-03-18T11:28:24.877Z,0.56
2018-03-18T11:29:25.099Z,0.65
2018-03-18T11:30:25.067Z,0.73
2018-03-18T11:31:25.040Z,0.7
2018-03-18T11:32:25.021Z,0.77
2018-03-18T11:33:24.979Z,0.95
2018-03-18T11:34:24.955Z,1.02
2018-03-18T11:35:24.924Z,0.99
2018-03-18T11:36:24.956Z,1.08
2018-03-18T11:37:24.886Z,1.19
2018-03-18T11:38:24.919Z,1.2
2018-03-18T11:39:24.803Z,1.24
2018-03-18T11:40:24.913Z,1.32
2018-03-18T11:41:24.819Z,1.4
2018-03-18T11:42:24.774Z,1.3
2018-03-18T11:43:24.785Z,1.26
2018-03-18T11:44:24.726Z,1.26
2018-03-18T11:45:24.729Z,1.24
2018-03-18T11:46:24.608Z,1.26
2018-03-18T11:47:24.577Z,1.19
2018-03-18T11:48:24.296Z,1.13
2018-03-18T11:49:24.527Z,1.02
2018-03-18T11:50:24.486Z,1.08
2018-03-18T11:51:24.464Z,1.12
2018-03-18T11:52:24.427Z,1.23
2018-03-18T11:53:24.401Z,1.24
2018-03-18T11:54:24.579Z,1.22
2018-03-18T11:55:24.342Z,1.13
2018-03-18T11:56:24.311Z,1.13
2018-03-18T11:57:24.288Z,1.13
2018-03-18T11:58:24.005Z,1.02
2018-03-18T11:59:23.738Z,1.08
2018-03-18T12:00:24.208Z,0.95
2018-03-18T12:01:23.920Z,0.87
2018-03-18T12:02:24.148Z,0.78
2018-03-18T12:03:24.118Z,0.77
2018-03-18T12:04:24.082Z,0.77
2018-03-18T12:05:24.058Z,0.78
2018-03-18T12:06:24.025Z,0.7
2018-03-18T12:07:24.000Z,0.73
2018-03-18T12:08:23.967Z,0.69
2018-03-18T12:09:23.940Z,0.76
2018-03-18T12:10:23.916Z,0.76
2018-03-18T12:11:23.881Z,0.8
2018-03-18T12:12:23.851Z,0.65
2018-03-18T12:13:23.817Z,0.81
2018-03-18T12:14:23.787Z,0.73
2018-03-18T12:15:23.759Z,0.68
2018-03-18T12:16:23.484Z,0.7
2018-03-18T12:17:23.705Z,0.77
2018-03-18T12:18:23.736Z,0.76
2018-03-18T12:19:23.690Z,0.8
2018-03-18T12:20:23.621Z,0.81
2018-03-18T12:21:23.334Z,0.76
2018-03-18T12:22:23.316Z,0.76
2018-03-18T12:23:23.551Z,0.81
2018-03-18T12:24:23.248Z,0.91
2018-03-18T12:25:23.215Z,1.01
2018-03-18T12:26:23.434Z,0.95
2018-03-18T12:27:23.444Z,1.02
2018-03-18T12:28:23.134Z,1.26
2018-03-18T12:29:23.344Z,1.26
2018-03-18T12:30:23.315Z,1.32
2018-03-18T12:31:23.284Z,1.31
2018-03-18T12:32:23.269Z,1.19
2018-03-18T12:33:22.978Z,1.19
2018-03-18T12:34:23.197Z,1.28
2018-03-18T12:35:23.160Z,1.22
2018-03-18T12:36:23.143Z,1.34
2018-03-18T12:37:23.103Z,1.41
2018-03-18T12:38:23.082Z,1.41
2018-03-18T12:39:23.042Z,1.44
2018-03-18T12:40:23.013Z,1.55
2018-03-18T12:41:22.985Z,1.6
2018-03-18T12:42:22.959Z,1.6
2018-03-18T12:43:22.920Z,1.66
2018-03-18T12:44:22.896Z,1.55
2018-03-18T12:45:22.864Z,1.58
2018-03-18T12:46:22.589Z,1.53
2018-03-18T12:47:22.554Z,1.66
2018-03-18T12:48:22.846Z,1.56
2018-03-18T12:49:22.744Z,1.73
2018-03-18T12:50:22.718Z,1.78
2018-03-18T12:51:22.681Z,1.89
2018-03-18T12:52:22.655Z,2.02
2018-03-18T12:53:22.627Z,1.95
2018-03-18T12:54:22.610Z,1.97
2018-03-18T12:55:22.742Z,1.91
2018-03-18T12:56:22.546Z,1.87
2018-03-18T12:57:22.599Z,1.81
2018-03-18T12:58:22.530Z,1.89
2018-03-18T12:59:22.545Z,1.8